Arapahoe, North Carolina
Current Conditions -  °F | °C
As of 10:54 AM on Tuesday 21 Oct 2014 (Local Time) from KNKT Reporting Station
Few Clouds Few Clouds  
Wind Chill: 73°   Ceiling: Unl
Heat Index: 73°   Visibility: 10mi
Dew Point: 56°   Wind: 8mph
Humidity: 55%   Direction: 310°NW
Pressure: 29.93"   Gusts: NA
Location:  35.03°N, 76.83°W
Report Text: KNKT 211454Z 31007KT 10SM FEW080 23/13 A2993 RMK AO2 SLP131 T02280133 58009 $
Loading
Personal Weather Stations






























Interactive Weather Map
Tropical Storm Tracking
New forecast layout! Learn more

10-Day Weather Forecast

Advertisements
Track Severe Weather on mobile